aviador You're here:

SOCA Decoded Metar

CAYENNE in FRENCH GUYANA
Report Time2018-04-27 02:30:00
UTC Time2018-04-27 03:03:36
Flight Rules mvfr MVFR
WindCalm
Visibility9999 m
Phenomena:N/A
Clouds:Broken 019 Hf
Overcast 180 Hf
Ceiling1,900 ft
Temp25°C (ISA +10)
Dew Point25°C (100% RH)
QNH1013 hPa
Density Alt1,611 ft
Elevation30 ft
Report Wrong Elevation
Raw Report
METAR SOCA 270230Z AUTO 00000KT 9999 BKN019 OVC180 25/25 Q1013=

Extra information for SOCA:More info

Metar Taf Metar & Taf Last 4 Metars F.Rules Stats Wind Profile Meteogram Temp Stats Airport Information Weather charts Add Link Nearby VenuesMetar ALERT Operation Metar Decoded Social comments